createdAt,value
2018-07-12T00:01:27.878Z,16.40
2018-07-12T00:03:55.499Z,16.40
2018-07-12T00:06:23.068Z,16.50
2018-07-12T00:08:50.634Z,16.40
2018-07-12T00:11:18.305Z,16.40
2018-07-12T00:13:45.880Z,16.30
2018-07-12T00:16:13.510Z,16.30
2018-07-12T00:18:41.333Z,16.30
2018-07-12T00:21:09.056Z,16.30
2018-07-12T00:23:36.712Z,16.30
2018-07-12T00:26:04.324Z,16.30
2018-07-12T00:28:31.902Z,16.20
2018-07-12T00:30:59.555Z,16.20
2018-07-12T00:33:27.134Z,16.20
2018-07-12T00:35:54.714Z,16.20
2018-07-12T00:38:22.299Z,16.20
2018-07-12T00:40:49.878Z,16.30
2018-07-12T00:43:17.481Z,16.20
2018-07-12T00:45:45.092Z,16.20
2018-07-12T00:48:12.674Z,16.30
2018-07-12T00:50:40.295Z,16.30
2018-07-12T00:53:08.062Z,16.20
2018-07-12T00:55:35.626Z,16.20
2018-07-12T00:58:03.255Z,16.20
2018-07-12T01:00:30.833Z,16.10
2018-07-12T01:02:58.404Z,15.90
2018-07-12T01:05:26.121Z,15.90
2018-07-12T01:07:53.686Z,15.90
2018-07-12T01:10:21.374Z,16.00
2018-07-12T01:12:48.957Z,16.10
2018-07-12T01:15:16.689Z,16.20
2018-07-12T01:17:44.259Z,16.20
2018-07-12T01:20:12.131Z,16.10
2018-07-12T01:22:39.677Z,16.00
2018-07-12T01:25:07.307Z,16.00
2018-07-12T01:27:34.871Z,15.90
2018-07-12T01:30:02.543Z,15.90
2018-07-12T01:32:30.120Z,15.80
2018-07-12T01:34:57.702Z,15.80
2018-07-12T01:37:25.343Z,15.70
2018-07-12T01:39:52.919Z,15.70
2018-07-12T01:42:20.521Z,15.60
2018-07-12T01:44:48.082Z,15.60
2018-07-12T01:47:15.661Z,15.60
2018-07-12T01:49:43.234Z,15.60
2018-07-12T01:52:10.845Z,15.60
2018-07-12T01:54:38.425Z,15.70
2018-07-12T01:57:06.035Z,15.70
2018-07-12T01:59:33.768Z,15.80
2018-07-12T02:02:01.384Z,15.90
2018-07-12T02:04:28.992Z,16.00
2018-07-12T02:06:56.563Z,16.00
2018-07-12T02:09:24.116Z,16.00
2018-07-12T02:11:51.974Z,16.10
2018-07-12T02:14:19.552Z,16.10
2018-07-12T02:16:47.161Z,16.10
2018-07-12T02:19:14.739Z,16.10
2018-07-12T02:21:42.383Z,16.20
2018-07-12T02:24:09.951Z,16.30
2018-07-12T02:26:37.667Z,16.30
2018-07-12T02:29:05.278Z,16.20
2018-07-12T02:31:32.974Z,16.20
2018-07-12T02:34:00.777Z,16.20
2018-07-12T02:36:28.420Z,16.20
2018-07-12T02:38:56.018Z,16.20
2018-07-12T02:41:23.611Z,16.20
2018-07-12T02:43:51.232Z,16.20
2018-07-12T02:46:18.842Z,16.20
2018-07-12T02:48:46.404Z,16.30
2018-07-12T02:51:14.166Z,16.30
2018-07-12T02:53:41.714Z,16.30
2018-07-12T02:56:09.286Z,16.20
2018-07-12T02:58:36.853Z,16.20
2018-07-12T03:01:04.515Z,16.10
2018-07-12T03:03:32.154Z,16.00
2018-07-12T03:05:59.786Z,16.00
2018-07-12T03:08:27.402Z,16.00
2018-07-12T03:10:55.028Z,16.00
2018-07-12T03:13:22.625Z,16.10
2018-07-12T03:15:50.250Z,16.20
2018-07-12T03:18:17.870Z,16.30
2018-07-12T03:20:45.550Z,16.20
2018-07-12T03:23:13.314Z,16.10
2018-07-12T03:25:41.129Z,16.10
2018-07-12T03:28:08.698Z,16.10
2018-07-12T03:30:36.338Z,16.10
2018-07-12T03:33:04.000Z,16.10
2018-07-12T03:35:31.624Z,16.10
2018-07-12T03:37:59.208Z,16.00
2018-07-12T03:40:26.817Z,15.90
2018-07-12T03:42:54.434Z,16.00
2018-07-12T03:45:21.990Z,15.90
2018-07-12T03:47:49.687Z,16.00
2018-07-12T03:50:17.266Z,16.00
2018-07-12T03:52:44.882Z,16.10
2018-07-12T03:55:12.526Z,16.00
2018-07-12T03:57:40.138Z,16.00
2018-07-12T04:00:07.845Z,16.00
2018-07-12T04:02:35.515Z,16.00
2018-07-12T04:05:03.080Z,16.00
2018-07-12T04:07:30.688Z,16.10
2018-07-12T04:09:58.289Z,16.20
2018-07-12T04:12:26.263Z,16.20
2018-07-12T04:14:53.849Z,16.20
2018-07-12T04:17:36.164Z,16.10
2018-07-12T04:20:05.031Z,16.20
2018-07-12T04:22:34.557Z,16.30
2018-07-12T04:27:30.362Z,16.40
2018-07-12T04:29:59.693Z,16.30
2018-07-12T04:32:27.526Z,16.30
2018-07-12T04:34:55.087Z,16.30
2018-07-12T04:37:22.729Z,16.30
2018-07-12T04:39:50.306Z,16.30
2018-07-12T04:42:17.957Z,16.30
2018-07-12T04:44:45.533Z,16.40
2018-07-12T04:47:13.248Z,16.40
2018-07-12T04:49:41.019Z,16.40
2018-07-12T04:52:08.707Z,16.50
2018-07-12T04:54:36.299Z,16.40
2018-07-12T04:57:03.936Z,16.40
2018-07-12T04:59:31.519Z,16.50
2018-07-12T05:01:59.098Z,16.60
2018-07-12T05:04:26.939Z,16.60
2018-07-12T05:06:54.571Z,16.70
2018-07-12T05:09:22.152Z,16.80
2018-07-12T05:11:49.803Z,16.80
2018-07-12T05:14:17.396Z,16.90
2018-07-12T05:16:45.007Z,17.00
2018-07-12T05:19:12.627Z,17.00
2018-07-12T05:21:40.215Z,17.10
2018-07-12T05:24:07.906Z,17.10
2018-07-12T05:26:35.473Z,17.20
2018-07-12T05:29:03.127Z,17.30
2018-07-12T05:31:30.670Z,17.40
2018-07-12T05:33:58.294Z,17.40
2018-07-12T05:36:31.915Z,17.40
2018-07-12T05:39:00.165Z,17.50
2018-07-12T05:41:28.376Z,17.60
2018-07-12T05:43:56.748Z,17.60
2018-07-12T05:46:24.923Z,17.70
2018-07-12T05:48:53.159Z,17.60
2018-07-12T05:51:21.318Z,17.60
2018-07-12T05:53:49.587Z,17.80
2018-07-12T05:56:17.886Z,17.90
2018-07-12T05:58:46.193Z,17.90
2018-07-12T06:01:19.986Z,17.50
2018-07-12T06:03:48.222Z,17.40
2018-07-12T06:06:16.466Z,17.50
2018-07-12T06:08:44.685Z,17.40
2018-07-12T06:11:12.992Z,17.50
2018-07-12T06:13:41.179Z,17.30
2018-07-12T06:16:09.405Z,17.40
2018-07-12T06:18:37.708Z,17.50
2018-07-12T06:21:06.023Z,17.50
2018-07-12T06:23:34.177Z,17.50
2018-07-12T06:26:02.348Z,17.50
2018-07-12T06:28:30.549Z,17.50
2018-07-12T06:30:58.746Z,17.60
2018-07-12T06:33:26.910Z,17.70
2018-07-12T06:35:55.931Z,17.90
2018-07-12T06:38:24.270Z,18.00
2018-07-12T06:40:52.827Z,18.00
2018-07-12T06:43:21.134Z,18.10
2018-07-12T06:45:49.410Z,18.20
2018-07-12T06:48:17.794Z,18.30
2018-07-12T06:50:45.999Z,18.30
2018-07-12T06:53:14.253Z,18.30
2018-07-12T06:55:42.602Z,18.30
2018-07-12T06:58:10.835Z,18.30
2018-07-12T07:00:39.087Z,18.30
2018-07-12T07:03:07.334Z,18.40
2018-07-12T07:08:03.438Z,18.40
2018-07-12T07:10:32.006Z,18.60
2018-07-12T07:13:00.324Z,18.60
2018-07-12T07:15:28.531Z,18.50
2018-07-12T07:17:56.680Z,18.40
2018-07-12T07:20:24.962Z,18.20
2018-07-12T07:22:53.428Z,18.20
2018-07-12T07:25:21.620Z,18.40
2018-07-12T07:27:49.909Z,18.50
2018-07-12T07:30:18.166Z,18.70
2018-07-12T07:32:46.350Z,18.80
2018-07-12T07:35:14.663Z,19.00
2018-07-12T07:37:42.996Z,19.00
2018-07-12T07:40:11.244Z,18.80
2018-07-12T07:42:39.429Z,18.80
2018-07-12T07:45:07.658Z,18.60
2018-07-12T07:47:35.907Z,18.30
2018-07-12T07:50:04.580Z,18.20
2018-07-12T07:52:32.939Z,18.40
2018-07-12T07:55:01.306Z,18.70
2018-07-12T07:57:29.507Z,18.60
2018-07-12T07:59:57.697Z,18.70
2018-07-12T08:02:26.347Z,18.90
2018-07-12T08:04:54.755Z,18.80
2018-07-12T08:07:23.007Z,19.00
2018-07-12T08:09:51.206Z,18.80
2018-07-12T08:12:19.476Z,19.20
2018-07-12T08:14:47.799Z,19.00
2018-07-12T08:17:16.111Z,19.20
2018-07-12T08:19:44.322Z,19.40
2018-07-12T08:22:12.531Z,19.50
2018-07-12T08:24:40.921Z,19.70
2018-07-12T08:27:09.138Z,20.10
2018-07-12T08:29:37.376Z,20.50
2018-07-12T08:32:05.812Z,20.90
2018-07-12T08:34:34.252Z,21.00
2018-07-12T08:37:02.506Z,20.90
2018-07-12T08:39:30.683Z,20.80
2018-07-12T08:41:58.901Z,20.30
2018-07-12T08:44:27.102Z,19.80
2018-07-12T08:46:55.509Z,19.90
2018-07-12T08:49:23.832Z,20.20
2018-07-12T08:54:20.098Z,20.30
2018-07-12T08:56:48.373Z,20.20
2018-07-12T08:59:16.751Z,20.20
2018-07-12T09:04:12.890Z,19.60
2018-07-12T09:06:41.460Z,19.60
2018-07-12T09:09:09.685Z,19.80
2018-07-12T09:11:37.954Z,20.20
2018-07-12T09:14:06.232Z,20.50
2018-07-12T09:16:34.444Z,20.70
2018-07-12T09:19:02.652Z,20.30
2018-07-12T09:21:30.842Z,20.00
2018-07-12T09:23:59.069Z,20.10
2018-07-12T09:26:27.443Z,20.30
2018-07-12T09:28:55.875Z,20.70
2018-07-12T09:31:24.093Z,21.10
2018-07-12T09:33:52.398Z,21.30
2018-07-12T09:36:20.584Z,21.30
2018-07-12T09:38:50.062Z,21.60
2018-07-12T09:41:18.964Z,21.70
2018-07-12T09:43:47.766Z,22.00
2018-07-12T09:46:16.424Z,22.20
2018-07-12T09:48:46.106Z,22.20
2018-07-12T09:51:14.931Z,21.80
2018-07-12T09:53:44.216Z,21.60
2018-07-12T09:56:12.945Z,21.80
2018-07-12T09:58:41.358Z,21.80
2018-07-12T10:01:15.138Z,21.90
2018-07-12T10:03:45.946Z,21.50
2018-07-12T10:08:52.892Z,21.90
2018-07-12T10:11:26.641Z,22.20
2018-07-12T10:15:04.481Z,21.80
2018-07-12T10:17:38.293Z,21.80
2018-07-12T10:20:06.790Z,21.80
2018-07-12T10:22:34.985Z,21.80
2018-07-12T10:25:03.205Z,21.90
2018-07-12T10:29:59.206Z,22.30
2018-07-12T10:32:27.587Z,22.20
2018-07-12T10:34:56.017Z,22.30
2018-07-12T10:37:24.450Z,22.20
2018-07-12T10:39:52.813Z,22.50
2018-07-12T10:42:21.166Z,22.40
2018-07-12T10:44:49.408Z,22.30
2018-07-12T10:47:17.761Z,22.10
2018-07-12T10:49:46.074Z,22.30
2018-07-12T10:52:14.303Z,22.40
2018-07-12T10:54:42.538Z,22.40
2018-07-12T10:57:10.944Z,22.30
2018-07-12T10:59:39.212Z,22.20
2018-07-12T11:02:07.607Z,22.40
2018-07-12T11:04:35.944Z,22.10
2018-07-12T11:09:32.039Z,21.20
2018-07-12T11:14:28.147Z,21.40
2018-07-12T11:16:56.369Z,21.50
2018-07-12T11:19:25.050Z,21.50
2018-07-12T11:21:53.391Z,21.50
2018-07-12T11:24:21.708Z,21.60
2018-07-12T11:26:49.954Z,22.20
2018-07-12T11:29:19.869Z,22.50
2018-07-12T11:31:48.208Z,22.60
2018-07-12T11:34:16.631Z,22.50
2018-07-12T11:36:45.003Z,22.60
2018-07-12T11:39:13.532Z,22.90
2018-07-12T11:41:41.866Z,23.20
2018-07-12T11:44:10.252Z,23.40
2018-07-12T11:46:38.498Z,23.20
2018-07-12T11:49:06.988Z,23.00
2018-07-12T11:51:35.350Z,23.20
2018-07-12T11:54:03.742Z,23.20
2018-07-12T11:56:31.985Z,23.00
2018-07-12T11:59:00.531Z,23.00
2018-07-12T12:01:28.948Z,23.30
2018-07-12T12:03:57.210Z,23.50
2018-07-12T12:06:25.575Z,23.80
2018-07-12T12:08:53.817Z,24.00
2018-07-12T12:11:22.023Z,24.10
2018-07-12T12:13:50.865Z,23.90
2018-07-12T12:16:19.034Z,23.90
2018-07-12T12:18:47.287Z,23.70
2018-07-12T12:21:15.514Z,23.50
2018-07-12T12:23:43.779Z,23.50
2018-07-12T12:26:12.085Z,23.50
2018-07-12T12:28:40.382Z,23.80
2018-07-12T12:31:08.700Z,23.90
2018-07-12T12:33:36.997Z,24.10
2018-07-12T12:36:05.287Z,24.10
2018-07-12T12:38:33.527Z,24.30
2018-07-12T12:41:01.879Z,24.10
2018-07-12T12:43:30.197Z,24.20
2018-07-12T12:45:58.489Z,24.50
2018-07-12T12:48:26.865Z,24.50
2018-07-12T12:50:55.068Z,24.00
2018-07-12T12:53:23.389Z,23.80
2018-07-12T12:55:51.607Z,23.80
2018-07-12T12:58:19.898Z,23.90
2018-07-12T13:00:48.389Z,24.00
2018-07-12T13:03:16.708Z,23.80
2018-07-12T13:05:44.981Z,23.80
2018-07-12T13:08:13.352Z,23.60
2018-07-12T13:10:41.715Z,23.40
2018-07-12T13:13:10.074Z,23.20
2018-07-12T13:15:38.275Z,22.80
2018-07-12T13:18:06.682Z,22.70
2018-07-12T13:20:34.921Z,22.70
2018-07-12T13:23:03.393Z,22.70
2018-07-12T13:25:31.810Z,22.80
2018-07-12T13:28:00.049Z,22.90
2018-07-12T13:30:28.460Z,23.10
2018-07-12T13:32:56.663Z,23.20
2018-07-12T13:35:25.127Z,23.50
2018-07-12T13:37:53.422Z,23.70
2018-07-12T13:40:21.672Z,23.60
2018-07-12T13:42:49.899Z,23.70
2018-07-12T13:45:19.215Z,23.60
2018-07-12T13:47:47.662Z,23.70
2018-07-12T13:50:15.996Z,23.80
2018-07-12T13:52:44.449Z,24.30
2018-07-12T13:55:12.816Z,24.60
2018-07-12T13:57:41.123Z,24.70
2018-07-12T14:00:09.375Z,24.60
2018-07-12T14:02:37.801Z,24.30
2018-07-12T14:05:06.171Z,23.90
2018-07-12T14:07:34.734Z,23.70
2018-07-12T14:10:03.035Z,23.70
2018-07-12T14:12:31.292Z,23.80
2018-07-12T14:14:59.645Z,24.10
2018-07-12T14:17:28.031Z,24.10
2018-07-12T14:19:56.428Z,24.10
2018-07-12T14:22:24.667Z,24.00
2018-07-12T14:24:53.062Z,24.10
2018-07-12T14:27:21.490Z,24.10
2018-07-12T14:29:49.853Z,24.10
2018-07-12T14:32:18.199Z,23.90
2018-07-12T14:34:46.560Z,24.00
2018-07-12T14:37:14.727Z,24.10
2018-07-12T14:39:42.962Z,24.00
2018-07-12T14:42:11.181Z,24.00
2018-07-12T14:44:39.608Z,24.00
2018-07-12T14:47:08.419Z,24.00
2018-07-12T14:49:36.545Z,24.10
2018-07-12T14:54:32.904Z,24.20
2018-07-12T14:57:01.254Z,23.90
2018-07-12T14:59:29.551Z,23.70
2018-07-12T15:01:57.824Z,23.60
2018-07-12T15:04:26.097Z,23.60
2018-07-12T15:06:54.382Z,23.70
2018-07-12T15:09:22.848Z,23.60
2018-07-12T15:11:51.056Z,23.30
2018-07-12T15:16:47.454Z,23.60
2018-07-12T15:19:15.744Z,23.70
2018-07-12T15:21:44.047Z,23.70
2018-07-12T15:24:12.399Z,23.90
2018-07-12T15:26:40.945Z,23.60
2018-07-12T15:29:09.157Z,23.50
2018-07-12T15:31:37.688Z,23.50
2018-07-12T15:34:06.042Z,23.30
2018-07-12T15:36:34.623Z,23.40
2018-07-12T15:39:03.201Z,23.20
2018-07-12T15:41:31.737Z,23.10
2018-07-12T15:44:00.056Z,22.90
2018-07-12T15:46:28.463Z,23.00
2018-07-12T15:48:56.800Z,23.10
2018-07-12T15:51:25.101Z,23.10
2018-07-12T15:53:53.567Z,23.10
2018-07-12T15:56:21.956Z,23.10
2018-07-12T16:01:18.354Z,22.70
2018-07-12T16:03:46.613Z,22.60
2018-07-12T16:06:14.925Z,22.60
2018-07-12T16:08:43.947Z,22.90
2018-07-12T16:11:12.284Z,23.00
2018-07-12T16:13:40.644Z,23.10
2018-07-12T16:16:08.963Z,23.10
2018-07-12T16:18:37.339Z,23.00
2018-07-12T16:21:05.593Z,22.90
2018-07-12T16:23:33.930Z,22.90
2018-07-12T16:26:02.410Z,22.90
2018-07-12T16:28:30.687Z,22.90
2018-07-12T16:30:59.169Z,23.10
2018-07-12T16:33:27.531Z,23.20
2018-07-12T16:35:55.857Z,23.20
2018-07-12T16:38:24.407Z,23.10
2018-07-12T16:40:52.888Z,23.10
2018-07-12T16:43:21.188Z,23.10
2018-07-12T16:45:49.625Z,23.20
2018-07-12T16:48:17.902Z,23.10
2018-07-12T16:50:46.396Z,23.20
2018-07-12T16:55:42.832Z,23.30
2018-07-12T16:58:11.192Z,23.20
2018-07-12T17:00:39.599Z,23.30
2018-07-12T17:03:07.888Z,23.20
2018-07-12T17:05:36.327Z,23.00
2018-07-12T17:08:04.732Z,23.00
2018-07-12T17:10:32.984Z,22.90
2018-07-12T17:13:01.383Z,23.00
2018-07-12T17:15:29.680Z,22.90
2018-07-12T17:17:58.046Z,22.90
2018-07-12T17:20:26.299Z,22.80
2018-07-12T17:22:54.871Z,22.90
2018-07-12T17:25:23.135Z,22.90
2018-07-12T17:27:51.458Z,22.90
2018-07-12T17:30:20.160Z,23.00
2018-07-12T17:32:48.426Z,22.90
2018-07-12T17:35:16.775Z,22.90
2018-07-12T17:37:45.246Z,22.90
2018-07-12T17:40:13.716Z,22.80
2018-07-12T17:42:42.144Z,22.80
2018-07-12T17:45:10.377Z,22.80
2018-07-12T17:47:38.728Z,22.70
2018-07-12T17:50:07.091Z,22.60
2018-07-12T17:52:35.502Z,22.40
2018-07-12T17:55:03.778Z,22.30
2018-07-12T17:57:32.169Z,22.20
2018-07-12T18:00:00.594Z,22.10
2018-07-12T18:02:28.958Z,22.00
2018-07-12T18:04:57.510Z,22.00
2018-07-12T18:07:25.737Z,21.70
2018-07-12T18:09:54.146Z,21.60
2018-07-12T18:12:22.793Z,21.50
2018-07-12T18:14:51.441Z,21.40
2018-07-12T18:17:20.678Z,21.40
2018-07-12T18:19:49.138Z,21.30
2018-07-12T18:22:17.922Z,21.30
2018-07-12T18:24:46.631Z,21.30
2018-07-12T18:27:15.623Z,21.40
2018-07-12T18:29:44.431Z,21.30
2018-07-12T18:32:13.038Z,21.20
2018-07-12T18:34:41.975Z,21.20
2018-07-12T18:37:11.093Z,21.00
2018-07-12T18:39:39.493Z,20.90
2018-07-12T18:42:08.078Z,20.90
2018-07-12T18:44:37.152Z,20.80
2018-07-12T18:47:06.538Z,20.70
2018-07-12T18:49:35.449Z,20.60
2018-07-12T18:52:03.845Z,20.50
2018-07-12T18:54:32.231Z,20.30
2018-07-12T18:57:01.023Z,20.30
2018-07-12T18:59:29.434Z,20.40
2018-07-12T19:01:57.875Z,20.40
2018-07-12T19:04:26.367Z,20.40
2018-07-12T19:06:54.792Z,20.40
2018-07-12T19:09:23.192Z,20.40
2018-07-12T19:11:51.492Z,20.50
2018-07-12T19:14:19.837Z,20.40
2018-07-12T19:16:48.067Z,20.30
2018-07-12T19:19:16.653Z,20.30
2018-07-12T19:24:13.179Z,20.30
2018-07-12T19:26:41.478Z,20.20
2018-07-12T19:29:10.580Z,20.10
2018-07-12T19:31:39.211Z,20.00
2018-07-12T19:34:07.877Z,20.00
2018-07-12T19:36:36.290Z,20.00
2018-07-12T19:39:06.034Z,19.80
2018-07-12T19:41:34.697Z,19.80
2018-07-12T19:44:02.901Z,19.70
2018-07-12T19:46:31.429Z,19.50
2018-07-12T19:48:59.784Z,19.30
2018-07-12T19:51:27.999Z,19.20
2018-07-12T19:53:56.585Z,19.20
2018-07-12T19:56:25.011Z,19.10
2018-07-12T19:58:53.368Z,19.10
2018-07-12T20:01:22.100Z,19.10
2018-07-12T20:03:50.864Z,19.10
2018-07-12T20:06:19.108Z,19.10
2018-07-12T20:08:47.500Z,19.00
2018-07-12T20:11:16.581Z,19.10
2018-07-12T20:13:45.746Z,19.00
2018-07-12T20:16:14.315Z,19.00
2018-07-12T20:18:43.002Z,19.00
2018-07-12T20:21:11.424Z,19.00
2018-07-12T20:23:40.057Z,19.00
2018-07-12T20:26:08.628Z,18.90
2018-07-12T20:28:36.882Z,18.80
2018-07-12T20:31:05.308Z,18.80
2018-07-12T20:33:33.715Z,18.80
2018-07-12T20:36:01.913Z,18.70
2018-07-12T20:40:58.304Z,18.60
2018-07-12T20:43:26.405Z,18.60
2018-07-12T20:45:54.835Z,18.60
2018-07-12T20:48:23.171Z,18.60
2018-07-12T20:50:51.550Z,18.50
2018-07-12T20:53:19.924Z,18.40
2018-07-12T20:55:48.447Z,18.20
2018-07-12T20:58:16.729Z,18.10
2018-07-12T21:00:45.085Z,18.10
2018-07-12T21:03:13.320Z,18.00
2018-07-12T21:05:41.668Z,17.90
2018-07-12T21:08:09.938Z,17.80
2018-07-12T21:10:38.181Z,17.80
2018-07-12T21:13:06.434Z,17.70
2018-07-12T21:15:34.868Z,17.70
2018-07-12T21:18:03.187Z,17.70
2018-07-12T21:20:31.521Z,17.60
2018-07-12T21:25:27.604Z,17.60
2018-07-12T21:27:55.882Z,17.60
2018-07-12T21:30:24.087Z,17.60
2018-07-12T21:32:52.290Z,17.50
2018-07-12T21:35:20.909Z,17.60
2018-07-12T21:37:49.187Z,17.40
2018-07-12T21:40:17.872Z,17.30
2018-07-12T21:42:46.209Z,17.10
2018-07-12T21:45:14.447Z,17.00
2018-07-12T21:47:42.634Z,16.90
2018-07-12T21:50:11.133Z,16.90
2018-07-12T21:52:39.332Z,16.90
2018-07-12T21:55:07.572Z,16.90
2018-07-12T21:57:35.829Z,16.80
2018-07-12T22:00:05.745Z,16.70
2018-07-12T22:02:40.250Z,16.70
2018-07-12T22:05:08.514Z,16.70
2018-07-12T22:07:55.608Z,16.60
2018-07-12T22:10:23.915Z,16.60
2018-07-12T22:12:52.279Z,16.60
2018-07-12T22:15:20.479Z,16.60
2018-07-12T22:17:48.718Z,16.60
2018-07-12T22:20:16.942Z,16.50
2018-07-12T22:22:45.168Z,16.50
2018-07-12T22:25:13.449Z,16.50
2018-07-12T22:27:41.794Z,16.50
2018-07-12T22:30:10.030Z,16.50
2018-07-12T22:32:38.217Z,16.50
2018-07-12T22:35:06.350Z,16.50
2018-07-12T22:37:34.633Z,16.50
2018-07-12T22:40:02.943Z,16.40
2018-07-12T22:42:31.168Z,16.50
2018-07-12T22:44:59.384Z,16.60
2018-07-12T22:47:27.770Z,16.60
2018-07-12T22:49:56.154Z,16.60
2018-07-12T22:52:24.406Z,16.40
2018-07-12T22:54:52.890Z,16.30
2018-07-12T22:57:21.058Z,16.20
2018-07-12T22:59:49.454Z,16.20
2018-07-12T23:02:17.703Z,16.10
2018-07-12T23:04:46.068Z,16.10
2018-07-12T23:07:14.258Z,16.00
2018-07-12T23:09:42.758Z,16.00
2018-07-12T23:12:11.022Z,16.00
2018-07-12T23:14:39.195Z,16.00
2018-07-12T23:17:07.443Z,15.90
2018-07-12T23:19:35.886Z,16.00
2018-07-12T23:22:04.166Z,16.10
2018-07-12T23:24:32.553Z,16.00
2018-07-12T23:27:00.799Z,16.10
2018-07-12T23:29:29.327Z,16.00
2018-07-12T23:31:57.525Z,16.10
2018-07-12T23:34:25.667Z,16.10
2018-07-12T23:36:53.978Z,16.20
2018-07-12T23:39:22.322Z,16.20
2018-07-12T23:41:50.824Z,16.10
2018-07-12T23:44:19.000Z,16.00
2018-07-12T23:46:47.364Z,15.90
2018-07-12T23:49:15.870Z,16.00
2018-07-12T23:51:44.279Z,16.00
2018-07-12T23:54:12.661Z,15.90
2018-07-12T23:56:40.830Z,15.80
2018-07-12T23:59:09.042Z,15.70
